createdAt,value
2024-05-09T00:00:54.288Z,11.70
2024-05-09T00:03:24.710Z,11.70
2024-05-09T00:05:55.752Z,11.70
2024-05-09T00:08:26.970Z,11.70
2024-05-09T00:10:57.732Z,11.70
2024-05-09T00:13:31.032Z,11.70
2024-05-09T00:16:02.870Z,11.70
2024-05-09T00:18:33.638Z,11.70
2024-05-09T00:21:04.366Z,11.60
2024-05-09T00:23:34.922Z,11.60
2024-05-09T00:26:05.882Z,11.50
2024-05-09T00:28:39.021Z,11.50
2024-05-09T00:31:09.339Z,11.50
2024-05-09T00:33:40.192Z,11.60
2024-05-09T00:36:10.799Z,11.60
2024-05-09T00:38:41.764Z,11.50
2024-05-09T00:41:12.386Z,11.50
2024-05-09T00:43:45.674Z,11.50
2024-05-09T00:46:17.116Z,11.50
2024-05-09T00:48:47.875Z,11.60
2024-05-09T00:51:18.931Z,11.30
2024-05-09T00:53:49.925Z,11.30
2024-05-09T00:56:24.152Z,11.40
2024-05-09T00:58:58.519Z,11.30
2024-05-09T01:01:29.635Z,11.30
2024-05-09T01:04:00.510Z,11.40
2024-05-09T01:06:31.164Z,11.20
2024-05-09T01:09:01.880Z,11.30
2024-05-09T01:11:39.483Z,11.10
2024-05-09T01:14:12.564Z,11.10
2024-05-09T01:16:43.394Z,10.90
2024-05-09T01:19:23.491Z,11.00
2024-05-09T01:21:54.191Z,10.90
2024-05-09T01:24:27.581Z,10.80
2024-05-09T01:26:58.180Z,11.00
2024-05-09T01:29:28.661Z,11.00
2024-05-09T01:32:00.167Z,10.90
2024-05-09T01:34:30.610Z,10.80
2024-05-09T01:37:00.964Z,10.80
2024-05-09T01:39:33.988Z,10.90
2024-05-09T01:42:04.564Z,10.70
2024-05-09T01:44:34.998Z,10.70
2024-05-09T01:47:05.703Z,10.70
2024-05-09T01:49:41.220Z,10.80
2024-05-09T01:52:11.508Z,10.60
2024-05-09T01:54:44.964Z,10.60
2024-05-09T01:57:15.435Z,10.70
2024-05-09T01:59:46.399Z,10.50
2024-05-09T02:02:17.343Z,10.40
2024-05-09T02:04:52.493Z,10.50
2024-05-09T02:07:23.133Z,10.50
2024-05-09T02:09:57.752Z,10.50
2024-05-09T02:12:28.667Z,10.60
2024-05-09T02:14:59.213Z,10.50
2024-05-09T02:17:29.855Z,10.60
2024-05-09T02:20:00.557Z,10.60
2024-05-09T02:22:31.031Z,10.60
2024-05-09T02:25:04.665Z,10.40
2024-05-09T02:27:35.163Z,10.50
2024-05-09T02:30:12.295Z,10.30
2024-05-09T02:32:49.370Z,10.40
2024-05-09T02:35:20.342Z,10.20
2024-05-09T02:37:48.332Z,10.30
2024-05-09T02:40:29.093Z,10.20
2024-05-09T02:43:04.035Z,10.20
2024-05-09T02:45:34.937Z,10.20
2024-05-09T02:48:05.897Z,10.00
2024-05-09T02:50:38.418Z,10.10
2024-05-09T02:53:10.900Z,10.10
2024-05-09T02:55:42.812Z,10.10
2024-05-09T02:58:13.803Z,9.90
2024-05-09T03:00:43.042Z,10.00
2024-05-09T03:03:15.632Z,10.00
2024-05-09T03:05:44.901Z,9.90
2024-05-09T03:08:15.677Z,10.00
2024-05-09T03:10:46.143Z,10.10
2024-05-09T03:13:18.277Z,10.00
2024-05-09T03:15:46.176Z,10.00
2024-05-09T03:18:17.090Z,10.00
2024-05-09T03:20:45.083Z,9.90
2024-05-09T03:23:15.705Z,9.80
2024-05-09T03:25:46.003Z,9.80
2024-05-09T03:28:16.450Z,9.80
2024-05-09T03:30:44.261Z,9.80
2024-05-09T03:33:18.373Z,9.70
2024-05-09T03:35:47.657Z,9.80
2024-05-09T03:38:18.496Z,9.80
2024-05-09T03:40:52.741Z,9.90
2024-05-09T03:43:20.730Z,9.90
2024-05-09T03:45:52.553Z,9.90
2024-05-09T03:48:20.594Z,9.70
2024-05-09T03:50:51.331Z,9.90
2024-05-09T03:53:19.189Z,9.90
2024-05-09T03:55:53.616Z,9.90
2024-05-09T03:58:21.439Z,10.00
2024-05-09T04:00:54.267Z,10.00
2024-05-09T04:03:22.223Z,9.90
2024-05-09T04:05:52.878Z,9.90
2024-05-09T04:08:20.611Z,10.10
2024-05-09T04:10:53.704Z,10.30
2024-05-09T04:13:21.797Z,10.50
2024-05-09T04:15:55.236Z,10.50
2024-05-09T04:18:23.062Z,10.40
2024-05-09T04:20:53.581Z,10.60
2024-05-09T04:23:21.447Z,10.60
2024-05-09T04:25:55.248Z,10.70
2024-05-09T04:28:24.118Z,10.70
2024-05-09T04:30:56.891Z,10.80
2024-05-09T04:33:25.106Z,10.90
2024-05-09T04:35:55.779Z,11.00
2024-05-09T04:38:23.693Z,11.10
2024-05-09T04:40:56.824Z,11.10
2024-05-09T04:43:24.596Z,10.90
2024-05-09T04:45:57.074Z,10.70
2024-05-09T04:48:24.968Z,10.80
2024-05-09T04:50:56.102Z,11.20
2024-05-09T04:53:23.968Z,11.00
2024-05-09T04:55:57.219Z,11.40
2024-05-09T04:58:25.109Z,11.40
2024-05-09T05:00:56.247Z,11.40
2024-05-09T05:03:24.237Z,11.60
2024-05-09T05:05:57.791Z,11.70
2024-05-09T05:08:25.721Z,11.70
2024-05-09T05:10:59.108Z,11.90
2024-05-09T05:13:31.568Z,12.00
2024-05-09T05:16:02.263Z,11.70
2024-05-09T05:18:30.122Z,11.70
2024-05-09T05:21:00.818Z,11.90
2024-05-09T05:23:28.590Z,12.10
2024-05-09T05:26:01.628Z,12.50
2024-05-09T05:28:30.033Z,12.60
2024-05-09T05:31:00.519Z,12.90
2024-05-09T05:33:28.531Z,12.60
2024-05-09T05:35:58.888Z,12.70
2024-05-09T05:38:28.369Z,12.50
2024-05-09T05:41:02.216Z,12.60
2024-05-09T05:43:30.157Z,12.60
2024-05-09T05:46:00.622Z,12.70
2024-05-09T05:48:28.544Z,13.00
2024-05-09T05:51:01.149Z,13.30
2024-05-09T05:53:30.503Z,14.90
2024-05-09T05:56:03.987Z,16.30
2024-05-09T05:58:31.800Z,16.70
2024-05-09T06:01:02.873Z,17.70
2024-05-09T06:03:30.951Z,18.80
2024-05-09T06:06:05.388Z,20.00
2024-05-09T06:08:33.334Z,16.50
2024-05-09T06:11:06.754Z,15.20
2024-05-09T06:13:34.727Z,14.50
2024-05-09T06:16:05.187Z,14.00
2024-05-09T06:18:33.324Z,14.40
2024-05-09T06:21:04.445Z,14.40
2024-05-09T06:23:32.394Z,14.50
2024-05-09T06:26:07.528Z,14.60
2024-05-09T06:28:36.391Z,15.20
2024-05-09T06:31:07.000Z,15.60
2024-05-09T06:33:35.148Z,15.30
2024-05-09T06:36:05.662Z,15.40
2024-05-09T06:38:33.420Z,15.30
2024-05-09T06:41:06.801Z,15.40
2024-05-09T06:43:35.425Z,15.40
2024-05-09T06:46:05.815Z,15.50
2024-05-09T06:48:33.759Z,15.50
2024-05-09T06:51:04.573Z,15.50
2024-05-09T06:53:32.439Z,15.40
2024-05-09T06:56:06.703Z,15.60
2024-05-09T06:58:34.444Z,15.50
2024-05-09T07:01:05.124Z,15.60
2024-05-09T07:03:33.032Z,15.90
2024-05-09T07:06:05.193Z,16.20
2024-05-09T07:08:33.266Z,16.20
2024-05-09T07:11:06.607Z,16.40
2024-05-09T07:13:34.259Z,16.40
2024-05-09T07:16:05.869Z,16.70
2024-05-09T07:18:33.855Z,16.40
2024-05-09T07:21:04.485Z,16.60
2024-05-09T07:23:32.308Z,16.70
2024-05-09T07:26:05.617Z,16.90
2024-05-09T07:28:33.353Z,17.00
2024-05-09T07:31:03.884Z,17.00
2024-05-09T07:33:32.064Z,17.40
2024-05-09T07:36:02.598Z,17.20
2024-05-09T07:38:30.441Z,17.50
2024-05-09T07:41:00.911Z,18.00
2024-05-09T07:43:31.417Z,18.10
2024-05-09T07:46:51.622Z,18.80
2024-05-09T07:53:56.102Z,18.80
2024-05-09T07:56:29.209Z,19.70
2024-05-09T07:58:59.883Z,19.80
2024-05-09T08:01:30.716Z,19.80
2024-05-09T08:03:58.722Z,19.90
2024-05-09T08:06:29.619Z,19.70
2024-05-09T08:08:59.254Z,20.70
2024-05-09T08:11:35.975Z,21.10
2024-05-09T08:14:06.500Z,21.60
2024-05-09T08:16:37.075Z,21.70
2024-05-09T08:19:04.812Z,21.70
2024-05-09T08:21:35.386Z,21.70
2024-05-09T08:24:03.352Z,21.50
2024-05-09T08:26:33.828Z,21.50
2024-05-09T08:29:01.815Z,21.80
2024-05-09T08:31:39.570Z,21.70
2024-05-09T08:34:07.523Z,22.00
2024-05-09T08:36:38.001Z,23.00
2024-05-09T08:39:05.857Z,23.40
2024-05-09T08:41:37.270Z,22.80
2024-05-09T08:44:04.984Z,23.00
2024-05-09T08:46:40.020Z,23.20
2024-05-09T08:49:08.180Z,22.70
2024-05-09T08:51:38.794Z,22.90
2024-05-09T08:54:06.653Z,23.50
2024-05-09T08:56:38.496Z,23.60
2024-05-09T08:59:10.142Z,23.60
2024-05-09T09:01:44.737Z,22.70
2024-05-09T09:04:14.382Z,23.30
2024-05-09T09:06:46.138Z,23.70
2024-05-09T09:09:14.664Z,24.40
2024-05-09T09:11:45.247Z,23.90
2024-05-09T09:14:13.437Z,24.30
2024-05-09T09:16:46.878Z,24.10
2024-05-09T09:19:15.307Z,23.60
2024-05-09T09:21:46.036Z,24.50
2024-05-09T09:24:14.512Z,24.60
2024-05-09T09:26:47.632Z,25.10
2024-05-09T09:29:20.466Z,25.60
2024-05-09T09:32:01.203Z,26.10
2024-05-09T09:34:30.610Z,27.00
2024-05-09T09:37:06.514Z,27.00
2024-05-09T09:39:36.234Z,27.50
2024-05-09T09:42:08.528Z,26.70
2024-05-09T09:44:39.678Z,27.20
2024-05-09T09:47:16.473Z,28.10
2024-05-09T09:49:45.844Z,29.00
2024-05-09T09:52:17.486Z,29.40
2024-05-09T09:54:46.161Z,29.30
2024-05-09T09:57:17.655Z,29.90
2024-05-09T09:59:50.848Z,30.40
2024-05-09T10:02:24.287Z,29.00
2024-05-09T10:04:52.764Z,29.60
2024-05-09T10:07:24.512Z,29.00
2024-05-09T10:09:56.506Z,29.70
2024-05-09T10:12:27.578Z,30.80
2024-05-09T10:14:55.648Z,30.40
2024-05-09T10:17:28.929Z,31.00
2024-05-09T10:20:14.408Z,31.60
2024-05-09T10:22:52.148Z,32.80
2024-05-09T10:25:20.064Z,32.70
2024-05-09T10:27:58.535Z,33.00
2024-05-09T10:30:34.112Z,33.00
2024-05-09T10:33:14.014Z,34.40
2024-05-09T10:35:54.882Z,34.80
2024-05-09T10:38:25.455Z,35.00
2024-05-09T10:40:57.356Z,35.10
2024-05-09T10:43:28.840Z,35.90
2024-05-09T10:45:57.028Z,36.20
2024-05-09T10:48:30.651Z,35.40
2024-05-09T10:50:59.766Z,36.50
2024-05-09T10:53:30.153Z,36.20
2024-05-09T10:55:58.143Z,35.30
2024-05-09T10:58:28.750Z,35.50
2024-05-09T11:00:59.364Z,36.70
2024-05-09T11:03:33.600Z,36.90
2024-05-09T11:06:02.218Z,37.40
2024-05-09T11:08:34.466Z,36.90
2024-05-09T11:11:06.155Z,35.30
2024-05-09T11:13:37.680Z,34.60
2024-05-09T11:16:16.397Z,35.40
2024-05-09T11:18:57.304Z,34.90
2024-05-09T11:21:25.470Z,36.00
2024-05-09T11:23:56.094Z,38.20
2024-05-09T11:26:25.577Z,36.40
2024-05-09T11:28:55.852Z,37.40
2024-05-09T11:31:23.831Z,37.90
2024-05-09T11:33:57.755Z,37.80
2024-05-09T11:36:25.806Z,39.90
2024-05-09T11:38:56.241Z,40.10
2024-05-09T11:41:24.644Z,41.60
2024-05-09T11:43:55.464Z,41.40
2024-05-09T11:46:23.399Z,41.80
2024-05-09T11:48:57.097Z,43.20
2024-05-09T11:51:25.022Z,42.60
2024-05-09T11:53:57.679Z,43.00
2024-05-09T11:56:25.469Z,41.00
2024-05-09T11:58:56.155Z,41.60
2024-05-09T12:01:26.934Z,41.80
2024-05-09T12:04:01.537Z,43.70
2024-05-09T12:06:29.949Z,41.00
2024-05-09T12:09:00.541Z,40.20
2024-05-09T12:11:28.337Z,40.70
2024-05-09T12:13:58.899Z,41.80
2024-05-09T12:16:26.794Z,44.30
2024-05-09T12:18:57.495Z,44.60
2024-05-09T12:21:28.000Z,44.00
2024-05-09T12:23:58.932Z,42.00
2024-05-09T12:26:27.882Z,42.00
2024-05-09T12:28:58.267Z,41.00
2024-05-09T12:31:26.406Z,39.80
2024-05-09T12:33:57.391Z,34.90
2024-05-09T12:36:28.588Z,32.30
2024-05-09T12:38:58.968Z,30.20
2024-05-09T12:41:26.771Z,28.70
2024-05-09T12:43:57.292Z,27.50
2024-05-09T12:46:25.546Z,27.20
2024-05-09T12:48:56.375Z,26.60
2024-05-09T12:51:27.115Z,25.70
2024-05-09T12:53:58.084Z,25.30
2024-05-09T12:56:25.804Z,24.90
2024-05-09T12:58:56.198Z,24.70
2024-05-09T13:01:24.236Z,24.50
2024-05-09T13:03:56.031Z,24.10
2024-05-09T13:06:26.614Z,23.80
2024-05-09T13:08:57.223Z,23.80
2024-05-09T13:11:25.093Z,23.80
2024-05-09T13:13:55.964Z,23.30
2024-05-09T13:16:24.230Z,23.00
2024-05-09T13:18:57.507Z,22.40
2024-05-09T13:21:28.048Z,22.20
2024-05-09T13:24:00.340Z,22.00
2024-05-09T13:26:31.320Z,22.20
2024-05-09T13:28:59.127Z,22.20
2024-05-09T13:31:29.519Z,22.10
2024-05-09T13:33:57.917Z,21.90
2024-05-09T13:36:31.242Z,22.10
2024-05-09T13:38:59.599Z,22.00
2024-05-09T13:41:30.400Z,21.60
2024-05-09T13:43:58.611Z,21.40
2024-05-09T13:46:29.033Z,21.10
2024-05-09T13:48:57.222Z,21.20
2024-05-09T13:51:30.841Z,21.60
2024-05-09T13:53:59.589Z,21.40
2024-05-09T13:56:30.051Z,21.40
2024-05-09T13:58:57.990Z,21.50
2024-05-09T14:01:28.826Z,21.70
2024-05-09T14:03:57.040Z,21.70
2024-05-09T14:06:30.513Z,21.80
2024-05-09T14:08:58.402Z,21.80
2024-05-09T14:11:28.739Z,21.80
2024-05-09T14:13:56.567Z,21.70
2024-05-09T14:16:27.599Z,21.70
2024-05-09T14:18:55.712Z,21.70
2024-05-09T14:21:26.260Z,21.40
2024-05-09T14:23:56.986Z,21.60
2024-05-09T14:26:27.819Z,21.60
2024-05-09T14:28:55.803Z,21.50
2024-05-09T14:31:26.499Z,21.10
2024-05-09T14:33:54.606Z,21.20
2024-05-09T14:36:24.972Z,21.20
2024-05-09T14:38:55.777Z,20.80
2024-05-09T14:41:26.316Z,20.90
2024-05-09T14:43:54.104Z,21.00
2024-05-09T14:46:24.877Z,20.90
2024-05-09T14:48:53.273Z,20.90
2024-05-09T14:51:23.955Z,20.80
2024-05-09T14:53:52.127Z,20.80
2024-05-09T14:56:25.619Z,20.30
2024-05-09T14:58:55.485Z,20.20
2024-05-09T15:01:26.259Z,20.40
2024-05-09T15:03:54.736Z,20.50
2024-05-09T15:06:25.340Z,20.20
2024-05-09T15:08:56.688Z,19.90
2024-05-09T15:11:29.815Z,19.90
2024-05-09T15:13:57.585Z,20.10
2024-05-09T15:16:28.735Z,20.10
2024-05-09T15:18:56.804Z,20.10
2024-05-09T15:21:27.745Z,20.00
2024-05-09T15:23:55.773Z,20.10
2024-05-09T15:26:26.409Z,20.00
2024-05-09T15:28:57.034Z,20.00
2024-05-09T15:31:27.598Z,20.00
2024-05-09T15:33:55.526Z,20.00
2024-05-09T15:36:26.296Z,20.00
2024-05-09T15:38:55.772Z,19.70
2024-05-09T15:41:26.141Z,19.50
2024-05-09T15:43:56.758Z,19.60
2024-05-09T15:46:27.377Z,19.60
2024-05-09T15:48:55.457Z,19.50
2024-05-09T15:51:26.119Z,19.50
2024-05-09T15:53:54.039Z,19.60
2024-05-09T15:56:24.641Z,19.80
2024-05-09T15:58:52.607Z,19.90
2024-05-09T16:01:25.902Z,19.70
2024-05-09T16:03:54.153Z,19.80
2024-05-09T16:06:25.130Z,19.90
2024-05-09T16:08:53.416Z,19.90
2024-05-09T16:11:24.272Z,19.60
2024-05-09T16:13:52.416Z,19.60
2024-05-09T16:16:26.028Z,19.50
2024-05-09T16:18:54.068Z,19.60
2024-05-09T16:21:25.009Z,19.60
2024-05-09T16:23:53.093Z,19.50
2024-05-09T16:26:23.721Z,19.60
2024-05-09T16:28:52.094Z,19.50
2024-05-09T16:31:25.530Z,19.50
2024-05-09T16:33:53.744Z,19.60
2024-05-09T16:36:24.514Z,19.70
2024-05-09T16:38:52.552Z,19.80
2024-05-09T16:41:23.044Z,19.80
2024-05-09T16:43:50.798Z,19.80
2024-05-09T16:46:21.646Z,19.70
2024-05-09T16:48:54.718Z,19.70
2024-05-09T16:51:26.247Z,19.80
2024-05-09T16:53:54.086Z,19.70
2024-05-09T16:56:25.140Z,19.70
2024-05-09T16:58:53.030Z,19.60
2024-05-09T17:01:23.896Z,19.60
2024-05-09T17:03:54.798Z,19.40
2024-05-09T17:06:25.606Z,19.30
2024-05-09T17:08:55.476Z,19.30
2024-05-09T17:11:26.083Z,19.30
2024-05-09T17:13:56.643Z,19.30
2024-05-09T17:16:27.388Z,19.30
2024-05-09T17:19:00.738Z,19.20
2024-05-09T17:21:28.539Z,19.00
2024-05-09T17:23:58.976Z,19.00
2024-05-09T17:26:27.242Z,19.00
2024-05-09T17:28:58.025Z,18.90
2024-05-09T17:31:26.153Z,18.80
2024-05-09T17:33:59.557Z,18.80
2024-05-09T17:36:27.532Z,18.90
2024-05-09T17:38:58.088Z,18.90
2024-05-09T17:41:25.932Z,18.90
2024-05-09T17:43:56.570Z,18.70
2024-05-09T17:46:24.804Z,18.60
2024-05-09T17:48:58.800Z,18.70
2024-05-09T17:51:31.842Z,18.80
2024-05-09T17:54:02.736Z,18.60
2024-05-09T17:56:30.645Z,18.70
2024-05-09T17:59:01.435Z,18.70
2024-05-09T18:01:29.421Z,18.80
2024-05-09T18:04:00.165Z,18.70
2024-05-09T18:06:30.612Z,18.60
2024-05-09T18:09:01.283Z,18.50
2024-05-09T18:11:29.209Z,18.50
2024-05-09T18:13:59.980Z,18.40
2024-05-09T18:16:28.498Z,18.50
2024-05-09T18:18:59.285Z,18.50
2024-05-09T18:21:29.892Z,18.40
2024-05-09T18:24:00.478Z,18.30
2024-05-09T18:26:28.280Z,18.30
2024-05-09T18:28:58.832Z,18.30
2024-05-09T18:31:26.706Z,18.30
2024-05-09T18:33:57.472Z,18.30
2024-05-09T18:36:25.403Z,18.20
2024-05-09T18:38:58.611Z,18.20
2024-05-09T18:41:26.864Z,18.30
2024-05-09T18:43:57.935Z,18.10
2024-05-09T18:46:26.201Z,18.10
2024-05-09T18:48:56.941Z,18.10
2024-05-09T18:51:24.909Z,18.20
2024-05-09T18:53:58.291Z,18.10
2024-05-09T18:56:27.288Z,18.10
2024-05-09T18:58:57.992Z,18.10
2024-05-09T19:01:25.830Z,18.10
2024-05-09T19:03:56.816Z,18.10
2024-05-09T19:06:25.114Z,17.90
2024-05-09T19:08:58.826Z,17.90
2024-05-09T19:11:26.850Z,17.80
2024-05-09T19:13:58.926Z,17.80
2024-05-09T19:16:26.839Z,17.80
2024-05-09T19:18:57.810Z,17.80
2024-05-09T19:21:25.679Z,17.80
2024-05-09T19:23:58.875Z,17.80
2024-05-09T19:26:26.828Z,17.80
2024-05-09T19:28:57.472Z,17.80
2024-05-09T19:31:25.694Z,17.70
2024-05-09T19:33:56.180Z,17.80
2024-05-09T19:36:24.080Z,17.70
2024-05-09T19:38:55.186Z,17.70
2024-05-09T19:41:25.690Z,17.60
2024-05-09T19:43:56.436Z,17.70
2024-05-09T19:46:24.546Z,17.60
2024-05-09T19:48:55.543Z,17.60
2024-05-09T19:51:23.533Z,17.50
2024-05-09T19:53:55.310Z,17.50
2024-05-09T19:56:26.508Z,17.50
2024-05-09T19:58:57.118Z,17.50
2024-05-09T20:01:25.083Z,17.50
2024-05-09T20:03:59.212Z,17.40
2024-05-09T20:06:29.009Z,17.40
2024-05-09T20:09:00.065Z,17.30
2024-05-09T20:11:33.173Z,17.40
2024-05-09T20:14:04.079Z,17.40
2024-05-09T20:16:32.005Z,17.40
2024-05-09T20:19:02.682Z,17.40
2024-05-09T20:21:30.639Z,17.30
2024-05-09T20:24:01.190Z,17.30
2024-05-09T20:26:31.762Z,17.30
2024-05-09T20:29:02.284Z,17.20
2024-05-09T20:31:30.001Z,17.10
2024-05-09T20:34:00.578Z,17.10
2024-05-09T20:36:28.420Z,17.10
2024-05-09T20:38:58.854Z,17.10
2024-05-09T20:41:26.680Z,17.20
2024-05-09T20:44:02.320Z,17.10
2024-05-09T20:46:30.150Z,17.10
2024-05-09T20:49:00.887Z,17.00
2024-05-09T20:51:30.242Z,16.90
2024-05-09T20:54:00.740Z,16.70
2024-05-09T20:56:28.503Z,16.50
2024-05-09T20:59:02.135Z,16.40
2024-05-09T21:01:30.511Z,16.40
2024-05-09T21:04:01.631Z,16.40
2024-05-09T21:06:29.535Z,16.50
2024-05-09T21:08:59.995Z,16.60
2024-05-09T21:11:27.936Z,16.30
2024-05-09T21:14:01.436Z,16.20
2024-05-09T21:16:29.505Z,16.30
2024-05-09T21:18:59.941Z,16.20
2024-05-09T21:21:27.935Z,16.30
2024-05-09T21:23:58.318Z,16.10
2024-05-09T21:26:26.497Z,16.20
2024-05-09T21:28:57.011Z,16.10
2024-05-09T21:31:27.534Z,16.10
2024-05-09T21:33:58.114Z,16.10
2024-05-09T21:36:28.674Z,15.90
2024-05-09T21:38:56.363Z,15.80
2024-05-09T21:41:27.227Z,15.70
2024-05-09T21:43:55.242Z,15.90
2024-05-09T21:46:25.753Z,15.90
2024-05-09T21:48:58.323Z,15.90
2024-05-09T21:51:28.922Z,15.90
2024-05-09T21:53:59.038Z,15.90
2024-05-09T21:56:29.689Z,15.80
2024-05-09T21:58:57.487Z,15.70
2024-05-09T22:01:28.118Z,15.70
2024-05-09T22:03:58.908Z,15.60
2024-05-09T22:06:29.555Z,15.70
2024-05-09T22:08:57.461Z,15.70
2024-05-09T22:11:27.851Z,15.70
2024-05-09T22:13:55.587Z,15.70
2024-05-09T22:16:26.286Z,15.70
2024-05-09T22:18:54.246Z,15.60
2024-05-09T22:21:27.595Z,15.60
2024-05-09T22:23:55.160Z,15.70
2024-05-09T22:26:25.575Z,15.50
2024-05-09T22:28:53.403Z,15.50
2024-05-09T22:31:24.052Z,15.50
2024-05-09T22:33:52.547Z,15.40
2024-05-09T22:36:23.057Z,15.50
2024-05-09T22:38:53.512Z,15.50
2024-05-09T22:41:23.874Z,15.40
2024-05-09T22:43:52.111Z,15.40
2024-05-09T22:46:22.697Z,15.30
2024-05-09T22:48:50.596Z,15.30
2024-05-09T22:51:21.310Z,15.30
2024-05-09T22:53:49.168Z,15.20
2024-05-09T22:56:29.973Z,15.20
2024-05-09T22:58:58.224Z,15.00
2024-05-09T23:01:28.988Z,15.00
2024-05-09T23:03:57.205Z,15.00
2024-05-09T23:06:27.946Z,15.00
2024-05-09T23:08:55.722Z,15.10
2024-05-09T23:11:29.033Z,15.00
2024-05-09T23:13:56.899Z,15.00
2024-05-09T23:16:27.405Z,15.00
2024-05-09T23:18:55.515Z,14.90
2024-05-09T23:21:26.247Z,14.90
2024-05-09T23:23:54.070Z,14.90
2024-05-09T23:26:24.645Z,14.90
2024-05-09T23:28:55.266Z,14.80
2024-05-09T23:31:25.899Z,14.90
2024-05-09T23:33:55.397Z,14.80
2024-05-09T23:36:25.814Z,14.70
2024-05-09T23:38:53.437Z,14.80
2024-05-09T23:41:24.373Z,14.70
2024-05-09T23:43:54.994Z,14.60
2024-05-09T23:46:25.899Z,14.60
2024-05-09T23:48:54.725Z,14.70
2024-05-09T23:51:25.423Z,14.70
2024-05-09T23:53:53.324Z,14.60
2024-05-09T23:56:24.139Z,14.70
2024-05-09T23:58:54.850Z,14.60
